CheckWX is a tool to help pilots better visualize weather data.  It is not intended as a substitute for an official pre-flight weather briefing.

21:04:41 UTC

CYNA METAR
Natashquan Airport
Natashquan, Canada
Current

1 hour ago

CYNA 232000Z AUTO 04013G20KT 9SM CLR 16/01 A2994 RMK SLP142 DENSITY ALT 100FT
Observed
May-23 @ 20:00 UTC
Wind
  • 040° at 13 KTS
  • Gusting to 20 KTS
Visibility
9 SM
Flight Rules
VFR
Cloud Levels
  • Clear skies
Temperature
16°C / 61°F
Dewpoint
C / 34°F
Humidity
36%
Altimeter
29.94" Hg
Pressure
1013.92 hPa
Previous

2 hours ago

CYNA 231900Z AUTO 36014KT 9SM CLR 17/M01 A2996 RMK SLP147 DENSITY ALT 200FT
Observed
May-23 @ 19:00 UTC
Wind
  • 360° at 14 KTS
Visibility
9 SM
Flight Rules
VFR
Cloud Levels
  • Clear skies
Temperature
17°C / 63°F
Dewpoint
-1°C / 30°F
Humidity
30%
Altimeter
29.96" Hg
Pressure
1014.52 hPa
Previous

3 hours ago

CYNA 231800Z AUTO 35015G20KT 9SM CLR 16/M01 A2997 RMK SLP152 DENSITY ALT 100FT
Observed
May-23 @ 18:00 UTC
Wind
  • 350° at 15 KTS
  • Gusting to 20 KTS
Visibility
9 SM
Flight Rules
VFR
Cloud Levels
  • Clear skies
Temperature
16°C / 61°F
Dewpoint
-1°C / 30°F
Humidity
31%
Altimeter
29.97" Hg
Pressure
1014.92 hPa